createdAt,value
2018-11-28T00:02:04.985Z,26.27
2018-11-28T00:04:11.822Z,27.03
2018-11-28T00:06:17.525Z,25.30
2018-11-28T00:08:26.681Z,27.20
2018-11-28T00:10:34.782Z,26.47
2018-11-28T00:12:50.660Z,27.07
2018-11-28T00:14:57.799Z,25.47
2018-11-28T00:17:10.178Z,27.93
2018-11-28T00:19:20.197Z,27.60
2018-11-28T00:21:28.984Z,28.40
2018-11-28T00:23:37.897Z,28.13
2018-11-28T00:25:44.129Z,27.30
2018-11-28T00:27:56.398Z,29.77
2018-11-28T00:30:04.698Z,27.13
2018-11-28T00:32:12.299Z,26.73
2018-11-28T00:34:27.289Z,26.97
2018-11-28T00:36:37.446Z,27.33
2018-11-28T00:38:49.940Z,27.13
2018-11-28T00:40:58.915Z,26.57
2018-11-28T00:43:06.851Z,27.60
2018-11-28T00:45:26.002Z,27.37
2018-11-28T00:47:36.537Z,28.80
2018-11-28T00:49:42.338Z,28.43
2018-11-28T00:51:51.924Z,27.97
2018-11-28T00:53:59.978Z,27.13
2018-11-28T00:56:13.220Z,26.30
2018-11-28T00:58:22.874Z,26.83
2018-11-28T01:00:30.075Z,26.73
2018-11-28T01:02:39.392Z,27.17
2018-11-28T01:04:49.439Z,26.40
2018-11-28T01:07:04.756Z,26.93
2018-11-28T01:09:12.742Z,26.67
2018-11-28T01:11:21.939Z,27.00
2018-11-28T01:13:32.261Z,26.40
2018-11-28T01:15:41.089Z,27.40
2018-11-28T01:17:51.064Z,26.23
2018-11-28T01:20:04.957Z,26.27
2018-11-28T01:22:16.128Z,27.70
2018-11-28T01:24:29.085Z,26.60
2018-11-28T01:26:40.137Z,28.20
2018-11-28T01:28:46.738Z,27.53
2018-11-28T01:30:57.984Z,26.97
2018-11-28T01:33:07.796Z,26.90
2018-11-28T01:35:15.554Z,27.37
2018-11-28T01:37:27.418Z,26.23
2018-11-28T01:39:45.847Z,26.97
2018-11-28T01:41:54.318Z,28.23
2018-11-28T01:44:01.381Z,26.43
2018-11-28T01:46:12.608Z,28.03
2018-11-28T01:48:23.222Z,27.40
2018-11-28T01:50:31.646Z,28.10
2018-11-28T01:52:44.808Z,28.20
2018-11-28T01:54:50.996Z,28.57
2018-11-28T01:56:56.961Z,27.40
2018-11-28T01:59:12.207Z,28.80
2018-11-28T02:01:19.580Z,27.83
2018-11-28T02:03:26.029Z,27.03
2018-11-28T02:05:31.946Z,27.20
2018-11-28T02:07:45.357Z,26.93
2018-11-28T02:09:53.213Z,26.83
2018-11-28T02:12:05.457Z,26.00
2018-11-28T02:14:13.763Z,26.97
2018-11-28T02:16:21.552Z,27.67
2018-11-28T02:18:29.578Z,28.10
2018-11-28T02:20:35.186Z,26.50
2018-11-28T02:22:44.925Z,27.20
2018-11-28T02:24:59.705Z,26.23
2018-11-28T02:27:07.954Z,26.93
2018-11-28T02:29:15.340Z,26.27
2018-11-28T02:31:26.976Z,26.07
2018-11-28T02:33:34.652Z,26.23
2018-11-28T02:35:41.404Z,27.03
2018-11-28T02:37:50.835Z,27.67
2018-11-28T02:39:59.045Z,27.13
2018-11-28T02:42:07.834Z,26.83
2018-11-28T02:44:18.434Z,27.37
2018-11-28T02:46:36.387Z,28.03
2018-11-28T02:48:44.647Z,27.03
2018-11-28T02:50:56.668Z,26.70
2018-11-28T02:53:05.365Z,26.80
2018-11-28T02:55:14.133Z,27.53
2018-11-28T02:57:20.233Z,27.03
2018-11-28T02:59:27.674Z,26.33
2018-11-28T03:01:35.665Z,27.27
2018-11-28T03:03:41.719Z,25.57
2018-11-28T03:05:50.604Z,25.77
2018-11-28T03:07:58.532Z,25.70
2018-11-28T03:10:12.394Z,26.77
2018-11-28T03:12:21.081Z,24.87
2018-11-28T03:14:28.333Z,26.57
2018-11-28T03:16:39.805Z,26.20
2018-11-28T03:18:51.002Z,26.90
2018-11-28T03:21:00.646Z,26.43
2018-11-28T03:23:09.303Z,25.33
2018-11-28T03:25:20.053Z,26.23
2018-11-28T03:27:28.818Z,26.43
2018-11-28T03:29:36.670Z,26.70
2018-11-28T03:31:48.868Z,27.40
2018-11-28T03:33:58.007Z,27.83
2018-11-28T03:36:07.493Z,27.13
2018-11-28T03:38:13.294Z,28.50
2018-11-28T03:40:22.727Z,27.23
2018-11-28T03:42:32.321Z,28.53
2018-11-28T03:44:38.602Z,29.73
2018-11-28T03:46:47.754Z,27.87
2018-11-28T03:49:02.528Z,27.80
2018-11-28T03:51:10.786Z,28.20
2018-11-28T03:53:18.891Z,28.47
2018-11-28T03:55:30.552Z,27.87
2018-11-28T03:57:38.856Z,28.43
2018-11-28T03:59:45.849Z,28.07
2018-11-28T04:01:53.841Z,28.30
2018-11-28T04:04:02.516Z,28.53
2018-11-28T04:06:13.998Z,28.93
2018-11-28T04:08:20.169Z,28.10
2018-11-28T04:10:29.701Z,29.07
2018-11-28T04:12:38.165Z,29.07
2018-11-28T04:14:47.432Z,29.00
2018-11-28T04:16:56.484Z,28.73
2018-11-28T04:19:05.633Z,29.37
2018-11-28T04:21:17.125Z,28.67
2018-11-28T04:23:25.600Z,28.30
2018-11-28T04:25:35.139Z,27.90
2018-11-28T04:27:42.807Z,28.63
2018-11-28T04:29:51.630Z,27.37
2018-11-28T04:31:59.540Z,27.93
2018-11-28T04:34:06.680Z,29.23
2018-11-28T04:36:16.042Z,28.10
2018-11-28T04:38:24.896Z,27.63
2018-11-28T04:40:38.361Z,28.50
2018-11-28T04:42:51.092Z,28.40
2018-11-28T04:44:57.921Z,28.03
2018-11-28T04:47:06.956Z,29.43
2018-11-28T04:49:18.826Z,28.07
2018-11-28T04:51:30.851Z,28.87
2018-11-28T04:53:42.077Z,30.57
2018-11-28T04:55:52.333Z,29.03
2018-11-28T04:58:00.552Z,29.70
2018-11-28T05:00:13.015Z,28.60
2018-11-28T05:02:20.959Z,28.40
2018-11-28T05:04:33.210Z,29.20
2018-11-28T05:07:51.388Z,30.27
2018-11-28T05:10:00.165Z,29.00
2018-11-28T05:12:10.777Z,28.87
2018-11-28T05:14:18.268Z,29.20
2018-11-28T05:16:24.361Z,29.33
2018-11-28T05:18:38.912Z,29.20
2018-11-28T05:20:46.045Z,29.67
2018-11-28T05:22:53.211Z,29.37
2018-11-28T05:24:59.955Z,29.93
2018-11-28T05:27:09.926Z,30.13
2018-11-28T05:29:15.700Z,29.33
2018-11-28T05:31:27.758Z,29.37
2018-11-28T05:33:37.855Z,30.20
2018-11-28T05:35:47.731Z,30.30
2018-11-28T05:37:56.557Z,28.70
2018-11-28T05:40:02.851Z,28.93
2018-11-28T05:42:11.151Z,29.93
2018-11-28T05:44:18.935Z,29.47
2018-11-28T05:46:32.335Z,27.73
2018-11-28T05:48:42.453Z,26.77
2018-11-28T05:50:58.032Z,28.43
2018-11-28T05:53:05.941Z,28.73
2018-11-28T05:55:21.801Z,28.80
2018-11-28T05:57:34.756Z,28.13
2018-11-28T05:59:45.151Z,28.33
2018-11-28T06:01:53.887Z,29.00
2018-11-28T06:04:05.827Z,28.60
2018-11-28T06:06:16.896Z,28.83
2018-11-28T06:08:24.645Z,29.43
2018-11-28T06:10:33.269Z,28.73
2018-11-28T06:12:45.898Z,27.83
2018-11-28T06:14:57.083Z,28.00
2018-11-28T06:17:09.707Z,27.47
2018-11-28T06:19:21.494Z,29.73
2018-11-28T06:21:30.225Z,28.63
2018-11-28T06:23:46.110Z,29.20
2018-11-28T06:25:57.949Z,29.27
2018-11-28T06:28:06.610Z,29.57
2018-11-28T06:30:23.636Z,28.20
2018-11-28T06:32:30.065Z,28.33
2018-11-28T06:34:37.411Z,27.90
2018-11-28T06:36:45.363Z,28.10
2018-11-28T06:38:52.945Z,27.57
2018-11-28T06:41:03.704Z,28.33
2018-11-28T06:43:13.184Z,27.47
2018-11-28T06:45:26.722Z,28.57
2018-11-28T06:47:33.080Z,29.10
2018-11-28T06:49:40.816Z,28.53
2018-11-28T06:51:52.329Z,28.93
2018-11-28T06:54:03.905Z,29.17
2018-11-28T06:56:13.481Z,27.57
2018-11-28T06:58:21.944Z,27.50
2018-11-28T07:00:37.766Z,27.70
2018-11-28T07:02:49.867Z,30.33
2018-11-28T07:05:01.679Z,28.97
2018-11-28T07:07:12.831Z,28.40
2018-11-28T07:09:24.449Z,30.13
2018-11-28T07:11:35.524Z,30.27
2018-11-28T07:13:47.025Z,30.80
2018-11-28T07:16:04.342Z,29.63
2018-11-28T07:18:21.749Z,28.67
2018-11-28T07:20:30.612Z,30.17
2018-11-28T07:22:42.445Z,30.10
2018-11-28T07:25:00.197Z,29.53
2018-11-28T07:27:15.003Z,29.03
2018-11-28T07:31:44.941Z,29.17
2018-11-28T07:33:55.795Z,30.10
2018-11-28T07:36:06.765Z,29.53
2018-11-28T07:38:21.637Z,29.43
2018-11-28T07:40:33.906Z,29.57
2018-11-28T07:42:46.852Z,30.13
2018-11-28T07:45:01.119Z,31.13
2018-11-28T07:47:12.784Z,29.17
2018-11-28T07:49:31.023Z,30.80
2018-11-28T07:51:40.693Z,30.90
2018-11-28T10:22:27.777Z,30.97
2018-11-28T10:26:53.653Z,33.23
2018-11-28T10:29:06.258Z,33.30
2018-11-28T10:31:15.493Z,31.20
2018-11-28T10:33:33.383Z,32.07
2018-11-28T10:35:52.333Z,31.53
2018-11-28T10:38:08.842Z,30.53
2018-11-28T10:40:25.608Z,29.80
2018-11-28T10:42:38.832Z,29.87
2018-11-28T10:44:55.789Z,30.50
2018-11-28T10:49:29.672Z,30.00
2018-11-28T10:51:39.529Z,28.27
2018-11-28T10:53:52.017Z,27.67
2018-11-28T10:58:44.364Z,29.63
2018-11-28T11:01:03.439Z,28.47
2018-11-28T11:03:18.798Z,29.53
2018-11-28T11:05:34.548Z,28.03
2018-11-28T11:07:48.810Z,29.27
2018-11-28T11:10:06.264Z,29.63
2018-11-28T11:12:24.076Z,27.43
2018-11-28T11:14:43.056Z,28.77
2018-11-28T11:16:55.555Z,25.80
2018-11-28T11:19:11.524Z,28.17
2018-11-28T11:21:21.320Z,27.37
2018-11-28T11:23:31.220Z,27.80
2018-11-28T11:25:42.650Z,28.70
2018-11-28T11:27:56.058Z,27.93
2018-11-28T11:30:06.630Z,24.67
2018-11-28T11:32:20.983Z,29.20
2018-11-28T11:34:35.531Z,27.73
2018-11-28T11:36:51.830Z,28.80
2018-11-28T11:39:03.002Z,26.70
2018-11-28T11:41:18.105Z,27.40
2018-11-28T11:43:38.542Z,27.77
2018-11-28T11:45:49.130Z,26.73
2018-11-28T11:48:15.219Z,26.90
2018-11-28T11:50:34.735Z,23.30
2018-11-28T11:52:52.603Z,26.53
2018-11-28T11:55:16.540Z,24.70
2018-11-28T11:57:39.247Z,26.83
2018-11-28T12:00:04.746Z,26.60
2018-11-28T12:02:14.648Z,25.80
2018-11-28T12:09:37.492Z,26.20
2018-11-28T12:11:45.602Z,27.13
2018-11-28T12:14:03.117Z,26.17
2018-11-28T12:16:21.400Z,25.77
2018-11-28T12:18:35.816Z,25.40
2018-11-28T12:20:51.162Z,24.83
2018-11-28T12:23:06.266Z,24.67
2018-11-28T12:25:16.047Z,25.67
2018-11-28T12:27:35.442Z,25.17
2018-11-28T12:29:44.270Z,25.27
2018-11-28T12:31:52.697Z,26.00
2018-11-28T12:34:06.739Z,25.57
2018-11-28T12:36:22.352Z,24.63
2018-11-28T12:38:38.327Z,26.13
2018-11-28T12:40:48.563Z,24.97
2018-11-28T12:43:06.124Z,25.47
2018-11-28T12:45:23.827Z,25.90
2018-11-28T12:47:42.520Z,24.93
2018-11-28T12:49:58.716Z,26.20
2018-11-28T12:52:11.216Z,25.17
2018-11-28T12:54:25.407Z,25.93
2018-11-28T12:56:38.199Z,25.03
2018-11-28T12:58:52.916Z,25.23
2018-11-28T13:01:04.554Z,24.97
2018-11-28T13:03:21.278Z,24.10
2018-11-28T13:05:37.292Z,23.63
2018-11-28T13:07:47.928Z,24.87
2018-11-28T13:09:58.462Z,25.27
2018-11-28T13:12:08.962Z,23.77
2018-11-28T13:14:25.290Z,26.07
2018-11-28T13:16:43.993Z,23.23
2018-11-28T13:18:59.112Z,25.07
2018-11-28T13:23:40.338Z,24.60
2018-11-28T13:25:54.195Z,24.70
2018-11-28T13:28:12.135Z,23.43
2018-11-28T13:30:31.530Z,25.00
2018-11-28T13:32:45.368Z,24.63
2018-11-28T13:35:01.382Z,24.47
2018-11-28T13:37:20.620Z,23.93
2018-11-28T13:39:28.779Z,24.87
2018-11-28T13:41:41.136Z,25.63
2018-11-28T13:43:52.105Z,24.00
2018-11-28T13:46:07.883Z,23.80
2018-11-28T13:48:23.788Z,23.67
2018-11-28T13:50:43.567Z,23.40
2018-11-28T13:53:02.840Z,22.10
2018-11-28T13:55:42.982Z,25.17
2018-11-28T13:57:43.880Z,23.73
2018-11-28T13:59:53.377Z,23.20
2018-11-28T14:02:06.675Z,24.17
2018-11-28T14:04:18.391Z,22.73
2018-11-28T14:06:30.728Z,23.73
2018-11-28T14:08:39.792Z,22.03
2018-11-28T14:13:10.759Z,23.40
2018-11-28T14:15:33.365Z,23.47
2018-11-28T14:17:50.705Z,22.93
2018-11-28T14:20:07.488Z,23.93
2018-11-28T14:24:45.755Z,22.43
2018-11-28T14:27:00.918Z,22.93
2018-11-28T14:29:18.060Z,22.93
2018-11-28T14:31:32.967Z,24.50
2018-11-28T14:33:56.562Z,23.43
2018-11-28T14:36:07.462Z,23.10
2018-11-28T14:38:20.274Z,21.53
2018-11-28T14:40:28.109Z,23.50
2018-11-28T14:42:34.159Z,21.70
2018-11-28T14:44:41.307Z,23.53
2018-11-28T14:46:50.167Z,22.77
2018-11-28T14:49:06.893Z,23.73
2018-11-28T14:51:22.440Z,23.03
2018-11-28T14:53:41.562Z,24.40
2018-11-28T14:55:57.505Z,22.60
2018-11-28T14:58:07.581Z,22.90
2018-11-28T15:00:37.126Z,23.00
2018-11-28T15:03:03.590Z,23.70
2018-11-28T15:05:24.928Z,23.87
2018-11-28T15:07:38.517Z,23.73
2018-11-28T15:10:00.197Z,22.63
2018-11-28T15:12:18.855Z,23.70
2018-11-28T15:14:34.253Z,23.30
2018-11-28T15:16:43.299Z,22.43
2018-11-28T15:18:59.547Z,22.13
2018-11-28T15:21:14.137Z,22.93
2018-11-28T15:23:24.492Z,22.77
2018-11-28T15:25:34.763Z,22.63
2018-11-28T15:27:45.572Z,21.70
2018-11-28T15:29:58.340Z,23.00
2018-11-28T15:32:14.248Z,22.63
2018-11-28T15:34:28.157Z,22.03
2018-11-28T15:36:37.124Z,22.50
2018-11-28T15:38:48.881Z,22.37
2018-11-28T15:41:00.802Z,23.13
2018-11-28T15:43:15.486Z,22.20
2018-11-28T15:45:24.608Z,21.83
2018-11-28T15:47:38.386Z,21.90
2018-11-28T15:49:52.646Z,22.17
2018-11-28T15:52:02.242Z,21.40
2018-11-28T15:54:21.535Z,21.87
2018-11-28T15:56:29.973Z,21.53
2018-11-28T15:58:41.886Z,22.33
2018-11-28T16:00:59.002Z,20.17
2018-11-28T16:03:12.812Z,21.70
2018-11-28T16:05:23.092Z,20.93
2018-11-28T16:07:38.900Z,21.10
2018-11-28T16:09:52.218Z,20.87
2018-11-28T16:12:03.288Z,21.70
2018-11-28T16:14:18.109Z,22.67
2018-11-28T16:16:28.535Z,22.37
2018-11-28T16:18:39.954Z,21.37
2018-11-28T16:20:51.609Z,21.60
2018-11-28T16:23:04.142Z,22.00
2018-11-28T16:25:11.465Z,21.37
2018-11-28T16:29:45.937Z,21.30
2018-11-28T16:31:53.918Z,21.53
2018-11-28T16:34:11.433Z,20.27
2018-11-28T16:36:23.782Z,20.80
2018-11-28T16:38:32.931Z,21.17
2018-11-28T16:40:43.539Z,21.30
2018-11-28T16:42:54.668Z,21.20
2018-11-28T16:45:12.110Z,21.70
2018-11-28T16:47:38.900Z,21.80
2018-11-28T16:52:15.044Z,21.00
2018-11-28T16:54:28.814Z,21.80
2018-11-28T16:56:41.399Z,21.73
2018-11-28T16:59:05.665Z,21.77
2018-11-28T17:01:18.079Z,21.87
2018-11-28T17:03:29.503Z,21.27
2018-11-28T17:05:45.386Z,21.93
2018-11-28T17:07:57.190Z,21.33
2018-11-28T17:10:11.262Z,22.73
2018-11-28T17:12:23.338Z,21.73
2018-11-28T17:14:42.728Z,22.43
2018-11-28T17:16:58.183Z,21.03
2018-11-28T17:19:09.182Z,22.23
2018-11-28T17:21:19.477Z,22.70
2018-11-28T17:23:30.722Z,22.37
2018-11-28T17:25:42.308Z,21.73
2018-11-28T17:27:57.685Z,21.60
2018-11-28T17:30:07.028Z,22.17
2018-11-28T17:32:17.912Z,22.60
2018-11-28T17:34:58.378Z,22.63
2018-11-28T17:39:28.076Z,23.53
2018-11-28T17:41:38.723Z,22.87
2018-11-28T17:43:48.129Z,21.10
2018-11-28T17:46:04.655Z,22.27
2018-11-28T17:48:18.078Z,23.13
2018-11-28T17:50:33.976Z,22.90
2018-11-28T17:52:43.965Z,22.27
2018-11-28T17:54:54.596Z,22.37
2018-11-28T17:57:08.289Z,22.30
2018-11-28T17:59:17.032Z,22.63
2018-11-28T18:01:32.687Z,22.97
2018-11-28T18:03:44.176Z,22.17
2018-11-28T18:05:54.888Z,22.37
2018-11-28T18:10:25.547Z,22.60
2018-11-28T18:12:38.347Z,22.00
2018-11-28T18:14:50.799Z,23.33
2018-11-28T18:17:00.010Z,23.73
2018-11-28T18:19:16.036Z,23.23
2018-11-28T18:21:26.270Z,23.20
2018-11-28T18:23:46.801Z,23.03
2018-11-28T18:28:17.417Z,21.63
2018-11-28T18:30:32.935Z,22.40
2018-11-28T18:32:41.226Z,22.93
2018-11-28T18:34:53.515Z,22.27
2018-11-28T18:37:03.650Z,22.80
2018-11-28T18:39:20.512Z,22.50
2018-11-28T18:41:28.807Z,22.67
2018-11-28T18:46:57.313Z,23.50
2018-11-28T18:49:08.035Z,23.10
2018-11-28T18:51:15.662Z,22.77
2018-11-28T18:53:25.813Z,24.30
2018-11-28T18:55:37.743Z,22.47
2018-11-28T18:57:55.459Z,22.17
2018-11-28T19:00:07.055Z,21.23
2018-11-28T19:02:18.410Z,22.53
2018-11-28T19:04:31.542Z,22.30
2018-11-28T19:06:44.476Z,22.90
2018-11-28T19:08:57.902Z,22.03
2018-11-28T19:11:09.213Z,22.37
2018-11-28T19:13:20.571Z,22.30
2018-11-28T19:15:38.607Z,21.87
2018-11-28T19:17:56.353Z,21.37
2018-11-28T19:20:15.142Z,22.47
2018-11-28T19:22:29.667Z,21.80
2018-11-28T19:24:41.899Z,21.83
2018-11-28T19:27:02.546Z,21.80
2018-11-28T19:29:14.404Z,24.07
2018-11-28T19:31:23.589Z,21.43
2018-11-28T19:33:36.064Z,20.90
2018-11-28T19:35:50.009Z,21.17
2018-11-28T19:38:01.281Z,22.00
2018-11-28T19:40:24.255Z,21.33
2018-11-28T19:42:37.896Z,22.00
2018-11-28T19:44:55.906Z,22.13
2018-11-28T19:47:04.312Z,20.53
2018-11-28T19:49:18.473Z,20.67
2018-11-28T19:51:59.231Z,20.37
2018-11-28T19:54:11.426Z,21.37
2018-11-28T19:58:42.213Z,20.47
2018-11-28T20:00:59.942Z,21.73
2018-11-28T20:03:13.389Z,21.63
2018-11-28T20:05:23.284Z,20.73
2018-11-28T20:07:34.998Z,21.33
2018-11-28T20:09:49.005Z,21.87
2018-11-28T20:12:04.129Z,21.40
2018-11-28T20:14:16.224Z,21.17
2018-11-28T20:16:26.785Z,22.07
2018-11-28T20:18:38.214Z,20.47
2018-11-28T20:20:52.065Z,21.67
2018-11-28T20:23:10.523Z,21.87
2018-11-28T20:25:24.453Z,22.53
2018-11-28T20:27:37.138Z,22.07
2018-11-28T20:32:03.032Z,21.17
2018-11-28T20:34:16.548Z,21.30
2018-11-28T20:36:29.993Z,22.53
2018-11-28T20:38:42.663Z,20.83
2018-11-28T20:40:59.561Z,21.77
2018-11-28T20:43:09.913Z,20.77
2018-11-28T20:45:22.151Z,22.07
2018-11-28T20:47:38.357Z,22.07
2018-11-28T20:49:46.179Z,22.60
2018-11-28T20:51:57.632Z,21.80
2018-11-28T20:54:12.203Z,23.13
2018-11-28T20:56:27.972Z,22.97
2018-11-28T20:58:44.839Z,21.03
2018-11-28T21:00:53.646Z,22.17
2018-11-28T21:06:17.603Z,20.63
2018-11-28T21:08:31.644Z,21.03
2018-11-28T21:10:45.047Z,22.53
2018-11-28T21:12:58.380Z,21.47
2018-11-28T21:15:08.739Z,22.30
2018-11-28T21:17:20.856Z,22.40
2018-11-28T21:19:34.454Z,22.93
2018-11-28T21:24:14.872Z,22.53
2018-11-28T21:26:25.739Z,23.50
2018-11-28T21:28:36.015Z,22.93
2018-11-28T21:30:47.058Z,23.67
2018-11-28T21:32:58.064Z,23.27
2018-11-28T21:35:10.986Z,24.63
2018-11-28T21:37:20.711Z,24.03
2018-11-28T21:39:32.616Z,24.47
2018-11-28T21:41:45.901Z,25.17
2018-11-28T21:44:13.300Z,24.30
2018-11-28T21:46:25.962Z,24.67
2018-11-28T21:48:40.799Z,24.93
2018-11-28T21:50:50.258Z,24.17
2018-11-28T21:53:03.729Z,24.53
2018-11-28T21:55:13.637Z,27.33
2018-11-28T21:57:25.430Z,27.57
2018-11-28T21:59:37.876Z,28.20
2018-11-28T22:01:53.791Z,26.67
2018-11-28T22:04:06.166Z,27.60
2018-11-28T22:06:22.059Z,27.57
2018-11-28T22:08:31.242Z,28.60
2018-11-28T22:10:45.159Z,26.23
2018-11-28T22:12:58.708Z,28.53
2018-11-28T22:15:12.600Z,27.87
2018-11-28T22:17:22.642Z,28.57
2018-11-28T22:19:37.826Z,28.37
2018-11-28T22:21:49.965Z,29.07
2018-11-28T22:23:55.212Z,29.30
2018-11-28T22:26:00.497Z,29.20
2018-11-28T22:28:06.636Z,29.57
2018-11-28T22:32:38.142Z,29.27
2018-11-28T22:34:51.500Z,28.60
2018-11-28T22:37:01.834Z,28.67
2018-11-28T22:39:13.885Z,28.77
2018-11-28T22:41:24.690Z,28.77
2018-11-28T22:43:42.231Z,28.17
2018-11-28T22:45:51.568Z,27.60
2018-11-28T22:48:00.098Z,28.87
2018-11-28T22:50:07.653Z,27.87
2018-11-28T22:52:22.584Z,28.20
2018-11-28T22:54:38.498Z,27.43
2018-11-28T22:56:49.834Z,28.73
2018-11-28T22:59:01.069Z,27.40
2018-11-28T23:01:14.356Z,26.60
2018-11-28T23:03:26.664Z,26.23
2018-11-28T23:05:42.278Z,28.07
2018-11-28T23:07:55.180Z,26.07
2018-11-28T23:10:11.066Z,27.37
2018-11-28T23:12:23.204Z,24.90
2018-11-28T23:14:35.187Z,27.87
2018-11-28T23:16:46.817Z,28.63
2018-11-28T23:18:59.005Z,30.00
2018-11-28T23:21:11.945Z,28.80
2018-11-28T23:23:26.873Z,28.20
2018-11-28T23:25:41.738Z,27.70
2018-11-28T23:27:53.272Z,27.07
2018-11-28T23:32:22.235Z,28.33
2018-11-28T23:34:31.070Z,27.87
2018-11-28T23:36:40.606Z,27.10
2018-11-28T23:38:52.647Z,28.50
2018-11-28T23:41:02.483Z,27.57
2018-11-28T23:43:10.277Z,28.43
2018-11-28T23:45:25.765Z,27.50
2018-11-28T23:47:36.667Z,27.77
2018-11-28T23:49:46.058Z,28.83
2018-11-28T23:51:57.737Z,29.80
2018-11-28T23:54:12.293Z,29.00
2018-11-28T23:56:31.432Z,28.37
2018-11-28T23:58:44.563Z,28.57
